sensor_id;sensor_type;location;lat;lon;timestamp;P1;durP1;ratioP1;P2;durP2;ratioP2
22476;SDS011;65006;51.698;-0.292;2023-07-31T00:00:29;9.70;;;2.60;;
22476;SDS011;65006;51.698;-0.292;2023-07-31T00:02:55;9.40;;;2.10;;
22476;SDS011;65006;51.698;-0.292;2023-07-31T00:05:21;7.97;;;2.13;;
22476;SDS011;65006;51.698;-0.292;2023-07-31T00:07:47;10.95;;;2.92;;
22476;SDS011;65006;51.698;-0.292;2023-07-31T00:10:13;6.60;;;2.72;;
22476;SDS011;65006;51.698;-0.292;2023-07-31T00:12:43;7.53;;;2.33;;
22476;SDS011;65006;51.698;-0.292;2023-07-31T00:15:09;11.75;;;2.00;;
22476;SDS011;65006;51.698;-0.292;2023-07-31T00:17:36;7.68;;;2.00;;
22476;SDS011;65006;51.698;-0.292;2023-07-31T00:20:02;6.28;;;1.95;;
22476;SDS011;65006;51.698;-0.292;2023-07-31T00:22:28;7.25;;;1.58;;
22476;SDS011;65006;51.698;-0.292;2023-07-31T00:24:55;7.25;;;1.80;;
22476;SDS011;65006;51.698;-0.292;2023-07-31T00:27:21;9.20;;;1.60;;
22476;SDS011;65006;51.698;-0.292;2023-07-31T00:29:47;3.80;;;1.40;;
22476;SDS011;65006;51.698;-0.292;2023-07-31T00:32:13;7.32;;;1.60;;
22476;SDS011;65006;51.698;-0.292;2023-07-31T00:34:39;7.55;;;2.03;;
22476;SDS011;65006;51.698;-0.292;2023-07-31T00:37:05;4.13;;;1.35;;
22476;SDS011;65006;51.698;-0.292;2023-07-31T00:39:33;3.38;;;1.13;;
22476;SDS011;65006;51.698;-0.292;2023-07-31T00:42:00;3.65;;;1.15;;
22476;SDS011;65006;51.698;-0.292;2023-07-31T00:44:26;2.13;;;0.95;;
22476;SDS011;65006;51.698;-0.292;2023-07-31T00:46:52;5.45;;;1.85;;
22476;SDS011;65006;51.698;-0.292;2023-07-31T00:51:45;2.88;;;0.75;;
22476;SDS011;65006;51.698;-0.292;2023-07-31T00:54:11;2.97;;;1.00;;
22476;SDS011;65006;51.698;-0.292;2023-07-31T00:56:37;3.38;;;0.88;;
22476;SDS011;65006;51.698;-0.292;2023-07-31T00:59:03;2.03;;;0.93;;
22476;SDS011;65006;51.698;-0.292;2023-07-31T01:01:29;3.55;;;0.90;;
22476;SDS011;65006;51.698;-0.292;2023-07-31T01:03:55;2.88;;;1.05;;
22476;SDS011;65006;51.698;-0.292;2023-07-31T01:06:33;3.00;;;0.60;;
22476;SDS011;65006;51.698;-0.292;2023-07-31T01:09:04;1.20;;;0.60;;
22476;SDS011;65006;51.698;-0.292;2023-07-31T01:11:33;3.05;;;0.95;;
22476;SDS011;65006;51.698;-0.292;2023-07-31T01:14:00;1.38;;;0.80;;
22476;SDS011;65006;51.698;-0.292;2023-07-31T01:16:26;2.08;;;0.68;;
22476;SDS011;65006;51.698;-0.292;2023-07-31T01:18:53;2.00;;;0.55;;
22476;SDS011;65006;51.698;-0.292;2023-07-31T01:26:21;1.35;;;0.40;;
22476;SDS011;65006;51.698;-0.292;2023-07-31T01:29:01;2.45;;;0.60;;
22476;SDS011;65006;51.698;-0.292;2023-07-31T01:31:29;0.70;;;0.40;;
22476;SDS011;65006;51.698;-0.292;2023-07-31T01:33:56;2.38;;;0.30;;
22476;SDS011;65006;51.698;-0.292;2023-07-31T01:36:23;0.93;;;0.30;;
22476;SDS011;65006;51.698;-0.292;2023-07-31T01:38:49;0.50;;;0.40;;
22476;SDS011;65006;51.698;-0.292;2023-07-31T01:41:18;0.38;;;0.20;;
22476;SDS011;65006;51.698;-0.292;2023-07-31T01:43:45;0.20;;;0.20;;
22476;SDS011;65006;51.698;-0.292;2023-07-31T01:48:37;0.55;;;0.38;;
22476;SDS011;65006;51.698;-0.292;2023-07-31T01:51:03;1.58;;;0.35;;
22476;SDS011;65006;51.698;-0.292;2023-07-31T01:53:32;1.05;;;0.40;;
22476;SDS011;65006;51.698;-0.292;2023-07-31T01:55:58;0.88;;;0.32;;
22476;SDS011;65006;51.698;-0.292;2023-07-31T01:58:24;0.45;;;0.30;;
22476;SDS011;65006;51.698;-0.292;2023-07-31T02:00:50;0.93;;;0.40;;
22476;SDS011;65006;51.698;-0.292;2023-07-31T02:03:16;1.33;;;0.55;;
22476;SDS011;65006;51.698;-0.292;2023-07-31T02:05:48;1.08;;;0.30;;
22476;SDS011;65006;51.698;-0.292;2023-07-31T02:08:15;2.88;;;0.47;;
22476;SDS011;65006;51.698;-0.292;2023-07-31T02:13:07;0.38;;;0.28;;
22476;SDS011;65006;51.698;-0.292;2023-07-31T02:15:34;1.92;;;0.30;;
22476;SDS011;65006;51.698;-0.292;2023-07-31T02:20:26;2.10;;;0.52;;
22476;SDS011;65006;51.698;-0.292;2023-07-31T02:22:55;1.98;;;0.57;;
22476;SDS011;65006;51.698;-0.292;2023-07-31T02:25:21;2.78;;;0.60;;
22476;SDS011;65006;51.698;-0.292;2023-07-31T02:27:47;1.13;;;0.60;;
22476;SDS011;65006;51.698;-0.292;2023-07-31T02:30:15;1.30;;;0.65;;
22476;SDS011;65006;51.698;-0.292;2023-07-31T02:32:41;1.40;;;0.60;;
22476;SDS011;65006;51.698;-0.292;2023-07-31T02:35:07;2.17;;;0.60;;
22476;SDS011;65006;51.698;-0.292;2023-07-31T02:37:33;1.50;;;0.60;;
22476;SDS011;65006;51.698;-0.292;2023-07-31T02:39:59;1.67;;;0.60;;
22476;SDS011;65006;51.698;-0.292;2023-07-31T02:42:25;3.20;;;0.60;;
22476;SDS011;65006;51.698;-0.292;2023-07-31T02:44:51;2.88;;;0.52;;
22476;SDS011;65006;51.698;-0.292;2023-07-31T02:47:21;0.80;;;0.40;;
22476;SDS011;65006;51.698;-0.292;2023-07-31T02:49:46;2.63;;;0.80;;
22476;SDS011;65006;51.698;-0.292;2023-07-31T02:52:12;3.88;;;0.60;;
22476;SDS011;65006;51.698;-0.292;2023-07-31T02:54:38;2.03;;;0.65;;
22476;SDS011;65006;51.698;-0.292;2023-07-31T02:57:04;3.47;;;0.88;;
22476;SDS011;65006;51.698;-0.292;2023-07-31T02:59:30;2.22;;;0.55;;
22476;SDS011;65006;51.698;-0.292;2023-07-31T03:01:56;1.40;;;0.60;;
22476;SDS011;65006;51.698;-0.292;2023-07-31T03:04:23;2.05;;;0.68;;
22476;SDS011;65006;51.698;-0.292;2023-07-31T03:06:49;1.02;;;0.55;;
22476;SDS011;65006;51.698;-0.292;2023-07-31T03:09:15;2.65;;;0.63;;
22476;SDS011;65006;51.698;-0.292;2023-07-31T03:11:41;2.50;;;0.60;;
22476;SDS011;65006;51.698;-0.292;2023-07-31T03:14:07;0.80;;;0.50;;
22476;SDS011;65006;51.698;-0.292;2023-07-31T03:16:32;2.35;;;0.73;;
22476;SDS011;65006;51.698;-0.292;2023-07-31T03:18:58;0.85;;;0.63;;
22476;SDS011;65006;51.698;-0.292;2023-07-31T03:21:25;1.85;;;0.57;;
22476;SDS011;65006;51.698;-0.292;2023-07-31T03:23:50;1.23;;;0.50;;
22476;SDS011;65006;51.698;-0.292;2023-07-31T03:26:16;2.33;;;0.70;;
22476;SDS011;65006;51.698;-0.292;2023-07-31T03:28:42;1.80;;;0.60;;
22476;SDS011;65006;51.698;-0.292;2023-07-31T03:31:08;1.27;;;0.47;;
22476;SDS011;65006;51.698;-0.292;2023-07-31T03:33:37;3.75;;;0.95;;
22476;SDS011;65006;51.698;-0.292;2023-07-31T03:36:03;3.55;;;0.55;;
22476;SDS011;65006;51.698;-0.292;2023-07-31T03:38:31;1.42;;;0.40;;
22476;SDS011;65006;51.698;-0.292;2023-07-31T03:40:57;2.42;;;0.50;;
22476;SDS011;65006;51.698;-0.292;2023-07-31T03:43:23;4.45;;;0.50;;
22476;SDS011;65006;51.698;-0.292;2023-07-31T03:45:50;1.58;;;0.70;;
22476;SDS011;65006;51.698;-0.292;2023-07-31T03:48:16;1.83;;;0.65;;
22476;SDS011;65006;51.698;-0.292;2023-07-31T03:50:42;2.85;;;0.70;;
22476;SDS011;65006;51.698;-0.292;2023-07-31T03:53:08;3.63;;;0.80;;
22476;SDS011;65006;51.698;-0.292;2023-07-31T03:55:34;2.22;;;0.40;;
22476;SDS011;65006;51.698;-0.292;2023-07-31T03:58:00;3.58;;;1.08;;
22476;SDS011;65006;51.698;-0.292;2023-07-31T04:00:26;2.72;;;0.68;;
22476;SDS011;65006;51.698;-0.292;2023-07-31T04:02:52;2.15;;;0.85;;
22476;SDS011;65006;51.698;-0.292;2023-07-31T04:05:18;1.38;;;1.27;;
22476;SDS011;65006;51.698;-0.292;2023-07-31T04:07:44;2.83;;;0.80;;
22476;SDS011;65006;51.698;-0.292;2023-07-31T04:10:10;3.08;;;0.73;;
22476;SDS011;65006;51.698;-0.292;2023-07-31T04:12:36;1.23;;;0.90;;
22476;SDS011;65006;51.698;-0.292;2023-07-31T04:15:02;1.38;;;0.63;;
22476;SDS011;65006;51.698;-0.292;2023-07-31T04:17:28;1.27;;;0.65;;
22476;SDS011;65006;51.698;-0.292;2023-07-31T04:19:54;2.00;;;0.80;;
22476;SDS011;65006;51.698;-0.292;2023-07-31T04:22:20;2.80;;;0.77;;
22476;SDS011;65006;51.698;-0.292;2023-07-31T04:24:46;2.20;;;0.95;;
22476;SDS011;65006;51.698;-0.292;2023-07-31T04:27:13;2.88;;;1.10;;
22476;SDS011;65006;51.698;-0.292;2023-07-31T04:29:39;4.90;;;0.82;;
22476;SDS011;65006;51.698;-0.292;2023-07-31T04:32:07;3.10;;;0.98;;
22476;SDS011;65006;51.698;-0.292;2023-07-31T04:34:33;1.23;;;0.50;;
22476;SDS011;65006;51.698;-0.292;2023-07-31T04:36:59;2.38;;;0.70;;
22476;SDS011;65006;51.698;-0.292;2023-07-31T04:39:25;1.65;;;0.65;;
22476;SDS011;65006;51.698;-0.292;2023-07-31T04:41:51;3.35;;;0.63;;
22476;SDS011;65006;51.698;-0.292;2023-07-31T04:44:17;0.98;;;0.70;;
22476;SDS011;65006;51.698;-0.292;2023-07-31T04:46:43;3.25;;;1.05;;
22476;SDS011;65006;51.698;-0.292;2023-07-31T04:49:09;2.72;;;0.90;;
22476;SDS011;65006;51.698;-0.292;2023-07-31T04:51:35;2.75;;;0.88;;
22476;SDS011;65006;51.698;-0.292;2023-07-31T04:54:01;1.08;;;0.70;;
22476;SDS011;65006;51.698;-0.292;2023-07-31T04:56:27;1.65;;;0.80;;
22476;SDS011;65006;51.698;-0.292;2023-07-31T04:58:53;1.77;;;0.70;;
22476;SDS011;65006;51.698;-0.292;2023-07-31T05:01:19;5.35;;;1.08;;
22476;SDS011;65006;51.698;-0.292;2023-07-31T05:03:45;1.95;;;0.88;;
22476;SDS011;65006;51.698;-0.292;2023-07-31T05:06:10;2.35;;;0.68;;
22476;SDS011;65006;51.698;-0.292;2023-07-31T05:08:38;4.90;;;1.20;;
22476;SDS011;65006;51.698;-0.292;2023-07-31T05:11:04;4.90;;;1.05;;
22476;SDS011;65006;51.698;-0.292;2023-07-31T05:13:30;3.88;;;0.70;;
22476;SDS011;65006;51.698;-0.292;2023-07-31T05:15:56;3.90;;;0.60;;
22476;SDS011;65006;51.698;-0.292;2023-07-31T05:18:22;4.35;;;0.77;;
22476;SDS011;65006;51.698;-0.292;2023-07-31T05:20:48;2.10;;;0.70;;
22476;SDS011;65006;51.698;-0.292;2023-07-31T05:23:14;3.63;;;0.90;;
22476;SDS011;65006;51.698;-0.292;2023-07-31T05:25:40;2.75;;;0.80;;
22476;SDS011;65006;51.698;-0.292;2023-07-31T05:28:06;2.65;;;0.90;;
22476;SDS011;65006;51.698;-0.292;2023-07-31T05:30:33;4.95;;;1.05;;
22476;SDS011;65006;51.698;-0.292;2023-07-31T05:32:59;2.90;;;0.88;;
22476;SDS011;65006;51.698;-0.292;2023-07-31T05:35:25;1.58;;;0.80;;
22476;SDS011;65006;51.698;-0.292;2023-07-31T05:37:51;6.43;;;1.00;;
22476;SDS011;65006;51.698;-0.292;2023-07-31T05:40:17;1.38;;;0.45;;
22476;SDS011;65006;51.698;-0.292;2023-07-31T05:42:43;2.88;;;0.60;;
22476;SDS011;65006;51.698;-0.292;2023-07-31T05:45:09;2.03;;;1.00;;
22476;SDS011;65006;51.698;-0.292;2023-07-31T05:47:35;2.50;;;0.57;;
22476;SDS011;65006;51.698;-0.292;2023-07-31T05:50:01;3.80;;;0.65;;
22476;SDS011;65006;51.698;-0.292;2023-07-31T05:52:27;2.47;;;0.60;;
22476;SDS011;65006;51.698;-0.292;2023-07-31T05:54:55;1.90;;;0.98;;
22476;SDS011;65006;51.698;-0.292;2023-07-31T05:57:21;2.97;;;0.52;;
22476;SDS011;65006;51.698;-0.292;2023-07-31T05:59:47;0.68;;;0.40;;
22476;SDS011;65006;51.698;-0.292;2023-07-31T06:02:13;1.35;;;0.40;;
22476;SDS011;65006;51.698;-0.292;2023-07-31T06:04:39;5.60;;;0.50;;
22476;SDS011;65006;51.698;-0.292;2023-07-31T06:07:05;0.50;;;0.40;;
22476;SDS011;65006;51.698;-0.292;2023-07-31T06:09:31;2.00;;;0.68;;
22476;SDS011;65006;51.698;-0.292;2023-07-31T06:11:57;2.63;;;0.60;;
22476;SDS011;65006;51.698;-0.292;2023-07-31T06:14:23;1.00;;;0.65;;
22476;SDS011;65006;51.698;-0.292;2023-07-31T06:16:49;2.72;;;0.70;;
22476;SDS011;65006;51.698;-0.292;2023-07-31T06:19:15;4.95;;;0.77;;
22476;SDS011;65006;51.698;-0.292;2023-07-31T06:21:41;6.82;;;0.65;;
22476;SDS011;65006;51.698;-0.292;2023-07-31T06:24:08;2.05;;;0.50;;
22476;SDS011;65006;51.698;-0.292;2023-07-31T06:26:34;0.88;;;0.55;;
22476;SDS011;65006;51.698;-0.292;2023-07-31T06:29:00;2.10;;;0.50;;
22476;SDS011;65006;51.698;-0.292;2023-07-31T06:31:26;3.05;;;0.60;;
22476;SDS011;65006;51.698;-0.292;2023-07-31T06:33:53;5.10;;;0.55;;
22476;SDS011;65006;51.698;-0.292;2023-07-31T06:36:19;3.13;;;0.40;;
22476;SDS011;65006;51.698;-0.292;2023-07-31T06:38:45;1.00;;;0.40;;
22476;SDS011;65006;51.698;-0.292;2023-07-31T06:41:11;1.15;;;0.30;;
22476;SDS011;65006;51.698;-0.292;2023-07-31T06:43:37;0.73;;;0.20;;
22476;SDS011;65006;51.698;-0.292;2023-07-31T06:46:06;1.88;;;0.60;;
22476;SDS011;65006;51.698;-0.292;2023-07-31T06:48:33;2.53;;;0.40;;
22476;SDS011;65006;51.698;-0.292;2023-07-31T06:51:00;7.90;;;1.17;;
22476;SDS011;65006;51.698;-0.292;2023-07-31T06:53:26;1.15;;;0.60;;
22476;SDS011;65006;51.698;-0.292;2023-07-31T06:55:52;2.05;;;0.50;;
22476;SDS011;65006;51.698;-0.292;2023-07-31T06:58:18;0.63;;;0.30;;
22476;SDS011;65006;51.698;-0.292;2023-07-31T07:00:44;4.57;;;0.47;;
22476;SDS011;65006;51.698;-0.292;2023-07-31T07:03:10;1.63;;;0.50;;
22476;SDS011;65006;51.698;-0.292;2023-07-31T07:05:36;3.10;;;0.40;;
22476;SDS011;65006;51.698;-0.292;2023-07-31T07:08:02;2.38;;;0.45;;
22476;SDS011;65006;51.698;-0.292;2023-07-31T07:10:28;0.40;;;0.30;;
22476;SDS011;65006;51.698;-0.292;2023-07-31T07:12:54;2.10;;;0.55;;
22476;SDS011;65006;51.698;-0.292;2023-07-31T07:15:20;2.05;;;0.40;;
22476;SDS011;65006;51.698;-0.292;2023-07-31T07:17:46;0.95;;;0.50;;
22476;SDS011;65006;51.698;-0.292;2023-07-31T07:20:12;0.40;;;0.20;;
22476;SDS011;65006;51.698;-0.292;2023-07-31T07:22:38;2.55;;;0.82;;
22476;SDS011;65006;51.698;-0.292;2023-07-31T07:25:06;4.85;;;0.43;;
22476;SDS011;65006;51.698;-0.292;2023-07-31T07:27:32;0.98;;;0.40;;
22476;SDS011;65006;51.698;-0.292;2023-07-31T07:29:59;1.73;;;0.43;;
22476;SDS011;65006;51.698;-0.292;2023-07-31T07:32:25;0.40;;;0.30;;
22476;SDS011;65006;51.698;-0.292;2023-07-31T07:34:51;2.47;;;0.35;;
22476;SDS011;65006;51.698;-0.292;2023-07-31T07:37:17;0.95;;;0.55;;
22476;SDS011;65006;51.698;-0.292;2023-07-31T07:39:43;1.10;;;0.45;;
22476;SDS011;65006;51.698;-0.292;2023-07-31T07:42:09;1.08;;;0.50;;
22476;SDS011;65006;51.698;-0.292;2023-07-31T07:44:35;2.30;;;0.50;;
22476;SDS011;65006;51.698;-0.292;2023-07-31T07:47:01;2.60;;;0.40;;
22476;SDS011;65006;51.698;-0.292;2023-07-31T07:49:27;2.83;;;0.60;;
22476;SDS011;65006;51.698;-0.292;2023-07-31T07:51:53;3.22;;;0.75;;
22476;SDS011;65006;51.698;-0.292;2023-07-31T07:54:20;3.03;;;0.75;;
22476;SDS011;65006;51.698;-0.292;2023-07-31T07:56:46;2.22;;;0.60;;
22476;SDS011;65006;51.698;-0.292;2023-07-31T07:59:12;1.45;;;0.57;;
22476;SDS011;65006;51.698;-0.292;2023-07-31T08:01:38;2.53;;;0.80;;
22476;SDS011;65006;51.698;-0.292;2023-07-31T08:04:04;3.08;;;0.70;;
22476;SDS011;65006;51.698;-0.292;2023-07-31T08:06:30;4.65;;;1.00;;
22476;SDS011;65006;51.698;-0.292;2023-07-31T08:08:56;2.28;;;0.88;;
22476;SDS011;65006;51.698;-0.292;2023-07-31T08:11:22;2.63;;;0.90;;
22476;SDS011;65006;51.698;-0.292;2023-07-31T08:13:48;1.63;;;1.00;;
22476;SDS011;65006;51.698;-0.292;2023-07-31T08:16:14;1.40;;;0.70;;
22476;SDS011;65006;51.698;-0.292;2023-07-31T08:18:40;3.35;;;0.75;;
22476;SDS011;65006;51.698;-0.292;2023-07-31T08:21:07;2.15;;;0.88;;
22476;SDS011;65006;51.698;-0.292;2023-07-31T08:23:34;1.27;;;0.70;;
22476;SDS011;65006;51.698;-0.292;2023-07-31T08:26:00;3.60;;;1.02;;
22476;SDS011;65006;51.698;-0.292;2023-07-31T08:28:26;1.00;;;0.60;;
22476;SDS011;65006;51.698;-0.292;2023-07-31T08:30:52;2.70;;;0.68;;
22476;SDS011;65006;51.698;-0.292;2023-07-31T08:33:18;4.95;;;0.68;;
22476;SDS011;65006;51.698;-0.292;2023-07-31T08:35:44;5.65;;;1.50;;
22476;SDS011;65006;51.698;-0.292;2023-07-31T08:38:11;5.38;;;1.25;;
22476;SDS011;65006;51.698;-0.292;2023-07-31T08:40:37;6.03;;;2.05;;
22476;SDS011;65006;51.698;-0.292;2023-07-31T08:43:04;2.65;;;1.60;;
22476;SDS011;65006;51.698;-0.292;2023-07-31T08:45:30;4.13;;;1.75;;
22476;SDS011;65006;51.698;-0.292;2023-07-31T08:47:56;4.57;;;1.98;;
22476;SDS011;65006;51.698;-0.292;2023-07-31T08:50:22;3.35;;;2.03;;
22476;SDS011;65006;51.698;-0.292;2023-07-31T08:52:49;4.10;;;1.85;;
22476;SDS011;65006;51.698;-0.292;2023-07-31T08:55:15;2.95;;;1.75;;
22476;SDS011;65006;51.698;-0.292;2023-07-31T08:57:41;2.60;;;1.50;;
22476;SDS011;65006;51.698;-0.292;2023-07-31T09:00:08;2.80;;;0.98;;
22476;SDS011;65006;51.698;-0.292;2023-07-31T09:05:01;2.90;;;1.70;;
22476;SDS011;65006;51.698;-0.292;2023-07-31T09:07:28;6.53;;;1.35;;
22476;SDS011;65006;51.698;-0.292;2023-07-31T09:09:54;2.88;;;1.52;;
22476;SDS011;65006;51.698;-0.292;2023-07-31T09:12:20;5.85;;;1.20;;
22476;SDS011;65006;51.698;-0.292;2023-07-31T09:14:46;4.35;;;0.90;;
22476;SDS011;65006;51.698;-0.292;2023-07-31T09:17:13;1.00;;;0.57;;
22476;SDS011;65006;51.698;-0.292;2023-07-31T09:19:42;1.90;;;0.77;;
22476;SDS011;65006;51.698;-0.292;2023-07-31T09:22:08;1.30;;;0.90;;
22476;SDS011;65006;51.698;-0.292;2023-07-31T09:24:34;3.92;;;0.82;;
22476;SDS011;65006;51.698;-0.292;2023-07-31T09:27:00;2.40;;;0.80;;
22476;SDS011;65006;51.698;-0.292;2023-07-31T09:29:27;3.67;;;0.98;;
22476;SDS011;65006;51.698;-0.292;2023-07-31T09:31:54;2.22;;;0.82;;
22476;SDS011;65006;51.698;-0.292;2023-07-31T09:34:28;4.50;;;1.00;;
22476;SDS011;65006;51.698;-0.292;2023-07-31T09:36:54;3.88;;;1.23;;
22476;SDS011;65006;51.698;-0.292;2023-07-31T09:39:20;3.28;;;1.00;;
22476;SDS011;65006;51.698;-0.292;2023-07-31T09:41:55;1.15;;;0.63;;
22476;SDS011;65006;51.698;-0.292;2023-07-31T09:44:21;5.22;;;0.85;;
22476;SDS011;65006;51.698;-0.292;2023-07-31T09:47:02;1.35;;;0.70;;
22476;SDS011;65006;51.698;-0.292;2023-07-31T09:49:28;3.83;;;0.85;;
22476;SDS011;65006;51.698;-0.292;2023-07-31T09:51:54;1.77;;;0.82;;
22476;SDS011;65006;51.698;-0.292;2023-07-31T09:54:20;2.38;;;0.52;;
22476;SDS011;65006;51.698;-0.292;2023-07-31T09:56:47;1.67;;;0.85;;
22476;SDS011;65006;51.698;-0.292;2023-07-31T09:59:17;2.28;;;0.70;;
22476;SDS011;65006;51.698;-0.292;2023-07-31T10:01:44;0.80;;;0.50;;
22476;SDS011;65006;51.698;-0.292;2023-07-31T10:04:11;1.73;;;0.50;;
22476;SDS011;65006;51.698;-0.292;2023-07-31T10:06:37;2.50;;;0.47;;
22476;SDS011;65006;51.698;-0.292;2023-07-31T10:09:07;1.77;;;0.60;;
22476;SDS011;65006;51.698;-0.292;2023-07-31T10:11:36;2.47;;;0.70;;
22476;SDS011;65006;51.698;-0.292;2023-07-31T10:14:04;3.10;;;0.80;;
22476;SDS011;65006;51.698;-0.292;2023-07-31T10:16:31;0.82;;;0.60;;
22476;SDS011;65006;51.698;-0.292;2023-07-31T10:18:57;1.70;;;0.63;;
22476;SDS011;65006;51.698;-0.292;2023-07-31T10:23:49;3.13;;;0.90;;
22476;SDS011;65006;51.698;-0.292;2023-07-31T10:28:42;1.85;;;0.70;;
22476;SDS011;65006;51.698;-0.292;2023-07-31T10:31:08;5.15;;;0.90;;
22476;SDS011;65006;51.698;-0.292;2023-07-31T10:33:34;2.17;;;0.88;;
22476;SDS011;65006;51.698;-0.292;2023-07-31T10:38:59;1.10;;;0.80;;
22476;SDS011;65006;51.698;-0.292;2023-07-31T10:41:29;1.17;;;0.70;;
22476;SDS011;65006;51.698;-0.292;2023-07-31T10:44:01;2.13;;;0.90;;
22476;SDS011;65006;51.698;-0.292;2023-07-31T10:46:28;1.98;;;0.70;;
22476;SDS011;65006;51.698;-0.292;2023-07-31T10:48:58;2.00;;;0.70;;
22476;SDS011;65006;51.698;-0.292;2023-07-31T10:51:33;0.90;;;0.57;;
22476;SDS011;65006;51.698;-0.292;2023-07-31T10:54:12;0.73;;;0.60;;
22476;SDS011;65006;51.698;-0.292;2023-07-31T10:56:39;2.05;;;0.60;;
22476;SDS011;65006;51.698;-0.292;2023-07-31T10:59:06;0.82;;;0.40;;
22476;SDS011;65006;51.698;-0.292;2023-07-31T11:01:51;2.05;;;0.80;;
22476;SDS011;65006;51.698;-0.292;2023-07-31T11:04:21;2.08;;;0.70;;
22476;SDS011;65006;51.698;-0.292;2023-07-31T11:07:22;3.83;;;0.80;;
22476;SDS011;65006;51.698;-0.292;2023-07-31T11:09:41;2.30;;;0.60;;
22476;SDS011;65006;51.698;-0.292;2023-07-31T11:12:07;1.02;;;0.70;;
22476;SDS011;65006;51.698;-0.292;2023-07-31T11:14:34;1.95;;;0.88;;
22476;SDS011;65006;51.698;-0.292;2023-07-31T11:17:05;1.27;;;0.70;;
22476;SDS011;65006;51.698;-0.292;2023-07-31T11:19:31;1.80;;;0.80;;
22476;SDS011;65006;51.698;-0.292;2023-07-31T11:21:57;2.25;;;0.82;;
22476;SDS011;65006;51.698;-0.292;2023-07-31T11:24:24;1.05;;;0.70;;
22476;SDS011;65006;51.698;-0.292;2023-07-31T11:26:53;3.35;;;0.70;;
22476;SDS011;65006;51.698;-0.292;2023-07-31T11:29:20;1.30;;;0.85;;
22476;SDS011;65006;51.698;-0.292;2023-07-31T11:31:46;3.10;;;0.85;;
22476;SDS011;65006;51.698;-0.292;2023-07-31T11:34:16;2.80;;;0.85;;
22476;SDS011;65006;51.698;-0.292;2023-07-31T11:36:54;1.35;;;0.80;;
22476;SDS011;65006;51.698;-0.292;2023-07-31T11:39:20;4.38;;;0.98;;
22476;SDS011;65006;51.698;-0.292;2023-07-31T11:41:47;4.70;;;1.05;;
22476;SDS011;65006;51.698;-0.292;2023-07-31T11:44:13;5.15;;;1.27;;
22476;SDS011;65006;51.698;-0.292;2023-07-31T11:46:39;2.13;;;0.80;;
22476;SDS011;65006;51.698;-0.292;2023-07-31T11:49:05;2.75;;;1.08;;
22476;SDS011;65006;51.698;-0.292;2023-07-31T11:51:31;4.75;;;1.23;;
22476;SDS011;65006;51.698;-0.292;2023-07-31T11:53:57;4.53;;;1.15;;
22476;SDS011;65006;51.698;-0.292;2023-07-31T11:56:24;3.25;;;1.25;;
22476;SDS011;65006;51.698;-0.292;2023-07-31T11:58:53;3.03;;;1.10;;
22476;SDS011;65006;51.698;-0.292;2023-07-31T12:01:21;3.22;;;1.20;;
22476;SDS011;65006;51.698;-0.292;2023-07-31T12:03:48;3.20;;;1.45;;
22476;SDS011;65006;51.698;-0.292;2023-07-31T12:06:14;2.70;;;1.00;;
22476;SDS011;65006;51.698;-0.292;2023-07-31T12:08:40;9.05;;;1.15;;
22476;SDS011;65006;51.698;-0.292;2023-07-31T12:11:07;4.00;;;1.10;;
22476;SDS011;65006;51.698;-0.292;2023-07-31T12:13:38;2.88;;;0.90;;
22476;SDS011;65006;51.698;-0.292;2023-07-31T12:16:04;6.53;;;1.67;;
22476;SDS011;65006;51.698;-0.292;2023-07-31T12:18:34;4.82;;;1.40;;
22476;SDS011;65006;51.698;-0.292;2023-07-31T12:21:01;4.35;;;1.40;;
22476;SDS011;65006;51.698;-0.292;2023-07-31T12:23:31;3.92;;;1.13;;
22476;SDS011;65006;51.698;-0.292;2023-07-31T12:28:26;2.72;;;1.23;;
22476;SDS011;65006;51.698;-0.292;2023-07-31T12:30:52;3.60;;;1.20;;
22476;SDS011;65006;51.698;-0.292;2023-07-31T12:33:22;6.10;;;1.63;;
22476;SDS011;65006;51.698;-0.292;2023-07-31T12:35:48;3.20;;;1.45;;
22476;SDS011;65006;51.698;-0.292;2023-07-31T12:38:14;10.95;;;1.70;;
22476;SDS011;65006;51.698;-0.292;2023-07-31T12:40:40;3.33;;;1.55;;
22476;SDS011;65006;51.698;-0.292;2023-07-31T12:43:07;8.43;;;2.00;;
22476;SDS011;65006;51.698;-0.292;2023-07-31T12:45:33;3.03;;;1.55;;
22476;SDS011;65006;51.698;-0.292;2023-07-31T12:50:26;6.00;;;1.55;;
22476;SDS011;65006;51.698;-0.292;2023-07-31T12:52:55;4.43;;;1.45;;
22476;SDS011;65006;51.698;-0.292;2023-07-31T12:55:21;5.65;;;1.30;;
22476;SDS011;65006;51.698;-0.292;2023-07-31T12:57:47;2.55;;;1.60;;
22476;SDS011;65006;51.698;-0.292;2023-07-31T13:00:13;4.80;;;1.33;;
22476;SDS011;65006;51.698;-0.292;2023-07-31T13:02:40;7.63;;;1.42;;
22476;SDS011;65006;51.698;-0.292;2023-07-31T13:05:06;4.38;;;1.85;;
22476;SDS011;65006;51.698;-0.292;2023-07-31T13:07:32;4.45;;;1.60;;
22476;SDS011;65006;51.698;-0.292;2023-07-31T13:09:58;6.63;;;1.67;;
22476;SDS011;65006;51.698;-0.292;2023-07-31T13:12:24;6.63;;;2.08;;
22476;SDS011;65006;51.698;-0.292;2023-07-31T13:14:50;3.95;;;1.35;;
22476;SDS011;65006;51.698;-0.292;2023-07-31T13:17:17;6.05;;;2.10;;
22476;SDS011;65006;51.698;-0.292;2023-07-31T13:19:44;9.20;;;2.05;;
22476;SDS011;65006;51.698;-0.292;2023-07-31T13:22:10;9.10;;;1.70;;
22476;SDS011;65006;51.698;-0.292;2023-07-31T13:24:35;2.90;;;1.80;;
22476;SDS011;65006;51.698;-0.292;2023-07-31T13:27:01;6.63;;;2.05;;
22476;SDS011;65006;51.698;-0.292;2023-07-31T13:29:28;9.60;;;2.35;;
22476;SDS011;65006;51.698;-0.292;2023-07-31T13:31:55;7.68;;;2.13;;
22476;SDS011;65006;51.698;-0.292;2023-07-31T13:34:21;6.97;;;1.85;;
22476;SDS011;65006;51.698;-0.292;2023-07-31T13:36:47;6.35;;;1.50;;
22476;SDS011;65006;51.698;-0.292;2023-07-31T13:39:13;7.45;;;2.05;;
22476;SDS011;65006;51.698;-0.292;2023-07-31T13:41:38;8.25;;;1.92;;
22476;SDS011;65006;51.698;-0.292;2023-07-31T13:44:04;9.00;;;2.58;;
22476;SDS011;65006;51.698;-0.292;2023-07-31T13:46:30;9.18;;;2.45;;
22476;SDS011;65006;51.698;-0.292;2023-07-31T13:48:57;7.88;;;2.28;;
22476;SDS011;65006;51.698;-0.292;2023-07-31T13:51:24;6.88;;;1.67;;
22476;SDS011;65006;51.698;-0.292;2023-07-31T13:53:50;6.47;;;1.80;;
22476;SDS011;65006;51.698;-0.292;2023-07-31T13:56:16;5.43;;;1.92;;
22476;SDS011;65006;51.698;-0.292;2023-07-31T13:58:42;4.20;;;1.98;;
22476;SDS011;65006;51.698;-0.292;2023-07-31T14:01:08;9.73;;;2.45;;
22476;SDS011;65006;51.698;-0.292;2023-07-31T14:03:37;14.35;;;2.65;;
22476;SDS011;65006;51.698;-0.292;2023-07-31T14:06:03;5.53;;;1.92;;
22476;SDS011;65006;51.698;-0.292;2023-07-31T14:08:29;5.80;;;2.08;;
22476;SDS011;65006;51.698;-0.292;2023-07-31T14:10:55;4.95;;;2.00;;
22476;SDS011;65006;51.698;-0.292;2023-07-31T14:13:21;5.03;;;2.03;;
22476;SDS011;65006;51.698;-0.292;2023-07-31T14:15:47;11.38;;;2.20;;
22476;SDS011;65006;51.698;-0.292;2023-07-31T14:18:13;9.85;;;2.10;;
22476;SDS011;65006;51.698;-0.292;2023-07-31T14:20:39;7.47;;;1.92;;
22476;SDS011;65006;51.698;-0.292;2023-07-31T14:23:05;7.95;;;2.20;;
22476;SDS011;65006;51.698;-0.292;2023-07-31T14:25:31;9.82;;;2.13;;
22476;SDS011;65006;51.698;-0.292;2023-07-31T14:27:57;7.55;;;2.20;;
22476;SDS011;65006;51.698;-0.292;2023-07-31T14:30:24;7.75;;;2.95;;
22476;SDS011;65006;51.698;-0.292;2023-07-31T14:32:50;6.90;;;2.47;;
22476;SDS011;65006;51.698;-0.292;2023-07-31T14:35:15;10.00;;;2.13;;
22476;SDS011;65006;51.698;-0.292;2023-07-31T14:37:43;5.80;;;1.88;;
22476;SDS011;65006;51.698;-0.292;2023-07-31T14:40:10;6.00;;;1.80;;
22476;SDS011;65006;51.698;-0.292;2023-07-31T14:42:36;4.57;;;2.28;;
22476;SDS011;65006;51.698;-0.292;2023-07-31T14:45:03;7.38;;;2.17;;
22476;SDS011;65006;51.698;-0.292;2023-07-31T14:47:29;6.30;;;2.28;;
22476;SDS011;65006;51.698;-0.292;2023-07-31T14:49:58;11.52;;;2.42;;
22476;SDS011;65006;51.698;-0.292;2023-07-31T14:52:28;7.85;;;2.33;;
22476;SDS011;65006;51.698;-0.292;2023-07-31T14:54:54;9.02;;;2.05;;
22476;SDS011;65006;51.698;-0.292;2023-07-31T14:57:20;5.88;;;1.65;;
22476;SDS011;65006;51.698;-0.292;2023-07-31T14:59:46;4.85;;;1.70;;